Time;durP1;ratioP1;P1;durP2;ratioP2;P2;SDS_P1;SDS_P2;PMS_P1;PMS_P2;Temp;Humidity;BMP_temperature;BMP_pressure;BME280_temperature;BME280_humidity;BME280_pressure;Samples;Min_cycle;Max_cycle;Signal;HPM_P1;HPM_P2
2023/05/04 00:00:29;;;;;;;7.63;4.70;;;;;;;8.14;70.90;100554.78;5054096;28;20060;-86
2023/05/04 00:02:54;;;;;;;9.65;4.90;;;;;;;7.85;70.22;100500.09;5054095;28;20054;-85
2023/05/04 00:05:19;;;;;;;6.65;4.28;;;;;;;7.84;70.62;100511.38;5053939;28;20028;-86
2023/05/04 00:07:45;;;;;;;6.70;4.53;;;;;;;8.09;70.35;100553.16;5053530;28;20028;-86
2023/05/04 00:10:10;;;;;;;8.45;4.75;;;;;;;8.06;70.60;100553.25;5053671;28;20044;-86
2023/05/04 00:12:36;;;;;;;8.40;4.70;;;;;;;7.87;70.41;100529.44;5054081;28;20033;-86
2023/05/04 00:15:02;;;;;;;5.65;4.15;;;;;;;7.80;71.05;100526.13;5053511;28;20383;-86
2023/05/04 00:17:28;;;;;;;8.02;4.55;;;;;;;7.91;71.31;100550.06;5053680;28;20033;-86
2023/05/04 00:19:53;;;;;;;8.13;4.10;;;;;;;7.63;71.32;100500.56;5052486;28;20029;-86
2023/05/04 00:22:19;;;;;;;6.10;4.68;;;;;;;7.93;71.60;100543.13;5053813;28;20036;-86
2023/05/04 00:24:44;;;;;;;6.55;4.53;;;;;;;7.89;71.54;100544.09;5051846;28;20040;-86
2023/05/04 00:27:10;;;;;;;9.15;4.55;;;;;;;7.76;71.47;100532.25;5052078;28;20041;-86
2023/05/04 00:29:36;;;;;;;6.95;4.10;;;;;;;7.69;71.57;100518.56;5053552;28;20082;-86
2023/05/04 00:32:01;;;;;;;5.93;4.55;;;;;;;7.60;71.29;100498.00;5051993;28;20029;-86
2023/05/04 00:34:28;;;;;;;8.52;5.30;;;;;;;7.67;70.78;100506.53;5053317;28;20017;-86
2023/05/04 00:36:53;;;;;;;7.43;4.07;;;;;;;7.63;71.35;100497.97;5053064;28;20135;-85
2023/05/04 00:39:19;;;;;;;7.97;4.75;;;;;;;7.82;71.84;100521.75;5053201;28;20489;-86
2023/05/04 00:41:44;;;;;;;6.70;4.40;;;;;;;7.91;71.69;100533.66;5053344;28;20087;-86
2023/05/04 00:44:10;;;;;;;7.45;4.78;;;;;;;7.79;71.77;100520.97;5051879;28;20353;-86
2023/05/04 00:46:36;;;;;;;6.22;4.53;;;;;;;7.67;71.73;100511.72;5053292;28;20048;-86
2023/05/04 00:49:02;;;;;;;9.18;4.97;;;;;;;7.75;71.35;100541.78;5052748;28;20036;-86
2023/05/04 00:51:29;;;;;;;7.80;4.28;;;;;;;7.58;71.32;100504.09;5052978;28;20396;-86
2023/05/04 00:53:55;;;;;;;8.77;4.55;;;;;;;7.43;70.97;100495.78;5051266;28;20021;-86
2023/05/04 00:56:24;;;;;;;5.15;4.18;;;;;;;7.60;71.92;100533.47;5051465;28;20115;-85
2023/05/04 00:58:53;;;;;;;4.63;4.07;;;;;;;7.41;71.46;100504.44;5052744;28;20102;-85
2023/05/04 01:01:22;;;;;;;6.50;4.05;;;;;;;7.29;72.41;100492.63;5052896;28;20025;-85
2023/05/04 01:03:52;;;;;;;10.93;4.95;;;;;;;7.21;72.47;100482.41;5051216;28;20021;-85
2023/05/04 01:06:26;;;;;;;8.05;4.88;;;;;;;7.56;72.82;100549.97;5051349;28;20079;-85
2023/05/04 01:09:16;;;;;;;7.47;4.25;;;;;;;7.46;72.40;100538.94;5051281;28;20056;-85
2023/05/04 01:11:52;;;;;;;6.43;4.75;;;;;;;7.37;72.46;100528.72;5050132;28;20095;-85
2023/05/04 01:14:20;;;;;;;7.03;4.60;;;;;;;7.21;73.17;100497.94;5050191;28;20040;-86
2023/05/04 01:16:46;;;;;;;7.50;4.10;;;;;;;7.17;72.98;100504.06;5049911;28;20036;-86
2023/05/04 01:19:11;;;;;;;9.80;4.53;;;;;;;7.17;72.85;100504.06;5033023;28;20048;-85
2023/05/04 01:21:37;;;;;;;8.70;5.28;;;;;;;7.34;72.66;100544.34;5049810;28;20582;-85
2023/05/04 01:24:04;;;;;;;8.35;4.32;;;;;;;7.07;72.78;100504.25;5033049;28;20036;-86
2023/05/04 01:26:33;;;;;;;5.80;4.18;;;;;;;7.10;72.79;100510.22;5049854;28;20041;-86
2023/05/04 01:29:14;;;;;;;5.32;4.72;;;;;;;7.30;72.93;100555.66;5032631;28;20492;-86
2023/05/04 01:31:42;;;;;;;7.43;4.40;;;;;;;6.96;73.19;100509.63;5049786;28;20051;-86
2023/05/04 01:34:08;;;;;;;5.72;3.83;;;;;;;7.18;73.32;100556.72;5049618;28;20064;-86
2023/05/04 01:36:34;;;;;;;9.27;4.60;;;;;;;6.94;72.24;100503.63;5033019;28;20072;-86
2023/05/04 01:39:01;;;;;;;7.15;3.92;;;;;;;7.21;72.14;100549.75;5049585;28;20132;-85
2023/05/04 01:41:27;;;;;;;6.22;4.10;;;;;;;7.13;71.73;100533.50;5049713;28;20036;-85
2023/05/04 01:43:55;;;;;;;6.13;4.30;;;;;;;7.07;71.74;100543.09;5032475;28;20037;-86
2023/05/04 01:46:20;;;;;;;7.60;4.22;;;;;;;7.02;72.06;100537.16;5049701;28;20039;-86
2023/05/04 01:48:46;;;;;;;5.65;4.15;;;;;;;6.95;73.06;100542.47;5040091;28;20041;-86
2023/05/04 01:51:11;;;;;;;5.88;4.07;;;;;;;6.92;73.42;100531.28;5051887;28;20105;-85
2023/05/04 01:53:36;;;;;;;5.57;4.03;;;;;;;6.94;73.44;100542.47;5052062;28;20024;-85
2023/05/04 01:56:02;;;;;;;6.97;4.00;;;;;;;6.86;73.55;100532.22;5050271;28;20028;-86
2023/05/04 01:58:27;;;;;;;6.25;4.35;;;;;;;6.70;73.72;100508.38;5050535;28;20059;-86
2023/05/04 02:00:53;;;;;;;7.20;4.05;;;;;;;6.89;74.27;100533.94;5050514;28;20017;-86
2023/05/04 02:03:18;;;;;;;7.40;4.15;;;;;;;6.95;74.19;100555.41;5051731;28;20033;-86
2023/05/04 02:05:43;;;;;;;6.13;3.97;;;;;;;6.82;74.19;100528.00;5050699;28;20032;-85
2023/05/04 02:08:09;;;;;;;6.47;4.07;;;;;;;6.94;74.71;100552.81;5050368;28;20040;-85
2023/05/04 02:10:34;;;;;;;5.47;4.05;;;;;;;6.91;74.26;100547.69;5051713;28;20029;-85
2023/05/04 02:12:59;;;;;;;6.43;3.60;;;;;;;6.84;74.32;100528.84;5051801;28;20479;-85
2023/05/04 02:15:25;;;;;;;8.18;4.00;;;;;;;6.86;73.87;100527.06;5050446;28;20028;-85
2023/05/04 02:17:50;;;;;;;6.97;3.40;;;;;;;6.88;74.33;100535.66;5051701;28;20021;-86
2023/05/04 02:20:16;;;;;;;5.15;3.45;;;;;;;6.86;74.48;100541.75;5051873;28;20025;-86
2023/05/04 02:22:41;;;;;;;5.93;3.97;;;;;;;6.49;73.97;100472.50;5051951;28;20033;-86
2023/05/04 02:25:07;;;;;;;4.68;3.40;;;;;;;6.83;73.96;100536.63;5051471;28;20052;-85
2023/05/04 02:27:32;;;;;;;6.72;4.13;;;;;;;6.64;74.44;100516.22;5051594;28;20426;-86
2023/05/04 02:29:58;;;;;;;4.38;3.42;;;;;;;6.72;74.48;100539.38;5050335;28;20028;-85
2023/05/04 02:32:24;;;;;;;5.32;3.75;;;;;;;6.72;74.26;100536.81;5051717;28;20361;-86
2023/05/04 02:34:50;;;;;;;7.13;4.00;;;;;;;6.73;73.59;100530.75;5050336;28;20028;-85
2023/05/04 02:37:15;;;;;;;10.02;4.53;;;;;;;6.59;74.38;100515.44;5051381;28;20388;-85
2023/05/04 02:39:41;;;;;;;6.43;4.22;;;;;;;6.68;74.19;100532.56;5050261;28;20040;-85
2023/05/04 02:42:06;;;;;;;8.43;3.90;;;;;;;6.74;73.76;100537.63;5051237;28;20025;-85
2023/05/04 02:44:32;;;;;;;5.72;4.43;;;;;;;6.56;73.89;100512.91;5055310;28;20423;-86
2023/05/04 02:46:57;;;;;;;6.93;4.22;;;;;;;6.56;73.80;100523.25;5054071;28;20033;-87
2023/05/04 02:49:22;;;;;;;9.15;4.82;;;;;;;6.50;73.68;100515.59;5054098;28;20031;-87
2023/05/04 02:51:48;;;;;;;6.63;4.10;;;;;;;6.54;74.02;100525.03;5053983;28;20115;-86
2023/05/04 02:54:13;;;;;;;7.55;4.13;;;;;;;6.53;74.64;100532.78;5055015;28;20080;-86
2023/05/04 02:56:38;;;;;;;6.38;4.28;;;;;;;6.44;75.35;100526.88;5055045;28;20033;-86
2023/05/04 02:59:04;;;;;;;7.20;4.25;;;;;;;6.52;76.11;100549.22;5053859;28;20071;-86
2023/05/04 03:01:29;;;;;;;5.97;3.60;;;;;;;6.39;76.44;100535.59;5055084;28;20032;-87
2023/05/04 03:03:54;;;;;;;11.43;4.55;;;;;;;6.43;76.29;100545.88;5054792;28;20031;-86
2023/05/04 03:06:20;;;;;;;6.03;3.90;;;;;;;6.24;77.15;100516.00;5053792;28;20025;-86
2023/05/04 03:08:45;;;;;;;4.88;4.35;;;;;;;6.21;77.75;100529.84;5055005;28;20439;-87
2023/05/04 03:11:10;;;;;;;6.30;3.90;;;;;;;6.30;78.09;100535.75;5053169;28;20532;-87
2023/05/04 03:13:36;;;;;;;5.85;4.07;;;;;;;6.21;78.13;100527.25;5055451;28;20029;-86
2023/05/04 03:16:01;;;;;;;5.80;3.85;;;;;;;6.22;78.42;100533.28;5053424;28;20400;-86
2023/05/04 03:18:26;;;;;;;4.68;3.65;;;;;;;6.23;78.30;100545.31;5053566;28;20067;-86
2023/05/04 03:20:52;;;;;;;6.82;4.00;;;;;;;6.09;78.22;100511.06;5054853;28;20075;-86
2023/05/04 03:23:17;;;;;;;5.68;3.72;;;;;;;6.24;78.68;100536.69;5053208;28;20055;-86
2023/05/04 03:25:42;;;;;;;6.15;3.95;;;;;;;6.32;78.51;100550.38;5054850;28;20032;-86
2023/05/04 03:28:08;;;;;;;4.80;4.00;;;;;;;6.16;78.33;100538.53;5054580;28;20044;-86
2023/05/04 03:30:35;;;;;;;5.88;3.78;;;;;;;6.17;78.33;100532.50;5053590;28;20083;-86
2023/05/04 03:33:00;;;;;;;5.20;3.97;;;;;;;6.19;78.13;100535.88;5053162;28;20035;-86
2023/05/04 03:35:25;;;;;;;4.28;3.65;;;;;;;6.19;77.88;100538.47;5054720;28;20029;-86
2023/05/04 03:37:51;;;;;;;5.70;4.30;;;;;;;6.05;78.17;100501.63;5053121;28;20056;-86
2023/05/04 03:40:21;;;;;;;6.68;4.43;;;;;;;6.12;78.40;100532.56;5054228;28;20021;-86
2023/05/04 03:42:46;;;;;;;9.50;4.63;;;;;;;6.14;79.16;100535.97;5052655;28;20036;-86
2023/05/04 03:45:11;;;;;;;6.97;4.30;;;;;;;6.25;78.56;100541.84;5052735;28;20096;-86
2023/05/04 03:47:37;;;;;;;8.90;5.03;;;;;;;6.24;78.71;100537.56;5052849;28;20591;-86
2023/05/04 03:50:02;;;;;;;8.50;4.38;;;;;;;6.12;78.75;100522.22;5053906;28;20404;-86
2023/05/04 03:52:28;;;;;;;7.20;4.72;;;;;;;6.34;78.88;100551.19;5052736;28;20025;-86
2023/05/04 03:54:53;;;;;;;6.47;4.72;;;;;;;6.36;78.41;100548.56;5051450;28;20082;-86
2023/05/04 03:57:18;;;;;;;7.50;4.90;;;;;;;6.24;78.70;100505.66;5053664;28;20074;-86
2023/05/04 03:59:44;;;;;;;12.07;4.60;;;;;;;6.44;78.25;100500.16;5054016;28;20056;-86
2023/05/04 04:02:09;;;;;;;8.00;5.30;;;;;;;7.02;78.01;100543.19;5052352;28;20028;-86
2023/05/04 04:04:34;;;;;;;7.90;4.65;;;;;;;7.82;76.15;100552.88;5052705;28;20110;-86
2023/05/04 04:07:00;;;;;;;7.55;4.13;;;;;;;8.60;73.47;100545.97;5054037;28;20047;-86
2023/05/04 04:09:25;;;;;;;8.48;4.82;;;;;;;9.03;71.48;100546.63;5053842;28;20629;-86
2023/05/04 04:11:50;;;;;;;8.63;4.53;;;;;;;9.18;70.49;100536.66;5053729;28;20086;-85
2023/05/04 04:14:16;;;;;;;8.73;5.18;;;;;;;9.46;70.61;100565.38;5053703;28;20479;-85
2023/05/04 04:16:41;;;;;;;8.40;4.63;;;;;;;9.52;70.65;100516.69;5053799;28;20028;-85
2023/05/04 04:19:06;;;;;;;7.25;3.97;;;;;;;10.02;69.52;100548.19;5053570;28;20028;-85
2023/05/04 04:21:32;;;;;;;6.57;3.92;;;;;;;10.52;68.14;100546.66;5053662;28;20035;-85
2023/05/04 04:23:57;;;;;;;5.25;4.03;;;;;;;10.80;67.05;100509.28;5053409;28;20025;-85
2023/05/04 04:26:22;;;;;;;6.32;4.40;;;;;;;11.74;64.81;100549.41;5051900;28;20037;-85
2023/05/04 04:28:51;;;;;;;7.13;4.22;;;;;;;12.72;62.20;100550.81;5052177;28;20099;-85
2023/05/04 04:31:18;;;;;;;5.75;4.03;;;;;;;13.49;59.70;100522.28;5053344;28;20063;-86
2023/05/04 04:33:43;;;;;;;7.80;4.82;;;;;;;13.92;58.18;100538.66;5052241;28;20029;-86
2023/05/04 04:36:10;;;;;;;7.65;4.72;;;;;;;13.67;58.37;100505.75;5053174;28;20424;-86
2023/05/04 04:38:36;;;;;;;8.60;4.95;;;;;;;13.85;59.05;100532.84;5051944;28;20025;-86
2023/05/04 04:41:02;;;;;;;7.80;5.13;;;;;;;14.17;58.87;100561.94;5053308;28;20028;-87
2023/05/04 04:43:27;;;;;;;11.48;6.25;;;;;;;14.39;58.26;100551.28;5051635;28;20029;-87
2023/05/04 04:45:52;;;;;;;12.23;5.55;;;;;;;14.36;57.48;100514.72;5053312;28;20039;-87
2023/05/04 04:48:20;;;;;;;7.45;4.82;;;;;;;15.02;56.87;100535.94;5051676;28;20024;-87
2023/05/04 04:50:46;;;;;;;7.70;4.93;;;;;;;15.81;54.34;100504.69;5049799;28;20421;-86
2023/05/04 04:53:11;;;;;;;6.38;5.32;;;;;;;16.86;52.20;100511.00;5031518;28;20104;-85
2023/05/04 04:55:36;;;;;;;10.30;5.60;;;;;;;17.63;50.47;100524.78;5033167;28;20457;-85
2023/05/04 04:58:02;;;;;;;7.97;5.18;;;;;;;17.56;50.78;100513.78;5032926;28;20381;-84
2023/05/04 05:00:28;;;;;;;8.13;5.47;;;;;;;17.51;50.66;100539.56;5033068;28;20112;-85
2023/05/04 05:02:54;;;;;;;13.20;7.20;;;;;;;17.38;49.54;100534.19;5033029;28;20428;-84
2023/05/04 05:05:19;;;;;;;12.07;6.22;;;;;;;17.51;50.09;100536.94;5032574;28;20113;-84
2023/05/04 05:07:44;;;;;;;10.65;6.75;;;;;;;17.59;50.07;100524.13;5032717;28;20171;-84
2023/05/04 05:10:10;;;;;;;15.68;7.40;;;;;;;17.85;49.79;100512.00;5032667;28;20105;-84
2023/05/04 05:12:35;;;;;;;15.15;7.25;;;;;;;18.77;46.89;100529.81;5032808;28;20057;-84
2023/05/04 05:15:03;;;;;;;9.43;5.50;;;;;;;19.89;43.66;100536.16;5032688;28;20029;-84
2023/05/04 05:17:28;;;;;;;7.82;4.78;;;;;;;20.56;41.59;100525.16;5031393;28;20032;-84
2023/05/04 05:19:54;;;;;;;8.25;4.35;;;;;;;20.35;42.86;100516.97;5032558;28;20481;-84
2023/05/04 05:22:19;;;;;;;5.43;3.33;;;;;;;19.87;41.30;100529.28;5032623;28;20094;-84
2023/05/04 05:24:44;;;;;;;8.68;3.47;;;;;;;19.44;42.06;100533.13;5032444;28;20033;-83
2023/05/04 05:27:10;;;;;;;4.72;3.28;;;;;;;19.41;42.22;100538.63;5032198;28;20125;-82
2023/05/04 05:29:36;;;;;;;5.60;3.33;;;;;;;19.59;41.33;100531.22;5032433;28;20494;-82
2023/05/04 05:32:02;;;;;;;6.05;3.58;;;;;;;19.85;41.21;100516.19;5032552;28;20025;-82
2023/05/04 05:34:27;;;;;;;4.30;3.10;;;;;;;21.36;40.26;100509.38;5032425;28;20373;-82
2023/05/04 05:36:53;;;;;;;5.78;3.55;;;;;;;22.63;38.61;100535.44;5032190;28;20025;-82
2023/05/04 05:39:18;;;;;;;7.13;3.00;;;;;;;22.60;37.79;100520.59;5048894;28;20484;-82
2023/05/04 05:41:43;;;;;;;4.13;3.25;;;;;;;21.90;38.50;100537.75;5051074;28;20460;-82
2023/05/04 05:44:09;;;;;;;4.40;3.20;;;;;;;21.39;39.05;100532.13;5050614;28;20091;-82
2023/05/04 05:46:34;;;;;;;6.80;3.53;;;;;;;21.31;39.27;100519.41;5048742;28;20535;-83
2023/05/04 05:49:00;;;;;;;4.38;2.95;;;;;;;21.62;39.28;100543.59;5051918;28;20017;-82
2023/05/04 05:51:25;;;;;;;5.53;3.45;;;;;;;22.03;38.02;100531.47;5047358;28;20052;-82
2023/05/04 05:53:50;;;;;;;6.70;3.40;;;;;;;22.82;36.53;100493.09;5031575;28;20029;-83
2023/05/04 05:56:16;;;;;;;3.83;3.08;;;;;;;24.13;35.51;100547.31;5033960;28;20071;-83
2023/05/04 05:58:42;;;;;;;6.90;3.70;;;;;;;24.26;35.43;100546.22;5032227;28;20052;-83
2023/05/04 06:01:07;;;;;;;3.60;2.90;;;;;;;23.45;36.23;100532.91;5031946;28;20022;-83
2023/05/04 06:03:32;;;;;;;5.57;3.17;;;;;;;23.30;37.33;100543.06;5032128;28;20492;-83
2023/05/04 06:05:58;;;;;;;3.58;2.85;;;;;;;23.06;36.88;100546.00;5032040;28;20056;-83
2023/05/04 06:08:23;;;;;;;4.40;3.22;;;;;;;22.63;36.88;100548.72;5031658;28;20381;-83
2023/05/04 06:10:50;;;;;;;6.30;2.92;;;;;;;23.27;37.04;100537.16;5032063;28;20028;-83
2023/05/04 06:13:15;;;;;;;4.28;2.92;;;;;;;24.54;36.34;100544.59;5031585;28;20083;-83
2023/05/04 06:15:41;;;;;;;5.35;3.15;;;;;;;24.91;35.93;100555.41;5031517;28;20025;-83
2023/05/04 06:18:06;;;;;;;3.88;2.88;;;;;;;24.64;35.81;100554.28;5034572;28;20032;-84
2023/05/04 06:20:32;;;;;;;3.90;3.45;;;;;;;23.89;35.30;100515.75;5035769;28;20091;-84
2023/05/04 06:22:57;;;;;;;27.52;6.03;;;;;;;24.00;35.63;100530.75;5035751;28;20100;-84
2023/05/04 06:25:23;;;;;;;4.35;3.30;;;;;;;24.82;35.52;100546.44;5035747;28;20484;-83
2023/05/04 06:27:48;;;;;;;4.80;3.40;;;;;;;26.10;33.77;100538.72;5035431;28;20401;-84
2023/05/04 06:30:14;;;;;;;5.22;3.35;;;;;;;26.97;32.36;100539.91;5034345;28;20022;-84
2023/05/04 06:32:40;;;;;;;4.32;3.30;;;;;;;28.72;32.32;100572.47;5035808;28;20091;-84
2023/05/04 06:35:07;;;;;;;4.82;3.22;;;;;;;30.16;30.91;100540.31;5035651;28;20029;-85
2023/05/04 06:37:33;;;;;;;5.18;3.80;;;;;;;30.70;28.92;100557.25;5035596;28;20055;-85
2023/05/04 06:39:58;;;;;;;5.57;3.47;;;;;;;30.19;29.22;100543.50;5035607;28;20025;-85
2023/05/04 06:42:24;;;;;;;3.03;2.72;;;;;;;29.94;30.84;100555.34;5035380;28;20029;-84
2023/05/04 06:44:51;;;;;;;3.92;3.05;;;;;;;30.65;29.45;100546.19;5035584;28;20393;-84
2023/05/04 06:47:16;;;;;;;3.63;3.33;;;;;;;32.31;28.30;100548.59;5049639;28;20049;-85
2023/05/04 06:49:41;;;;;;;3.63;2.92;;;;;;;34.28;27.02;100535.00;5035426;28;20461;-85
2023/05/04 06:52:06;;;;;;;4.15;3.45;;;;;;;35.57;25.68;100524.56;5035064;28;20029;-85
2023/05/04 06:54:32;;;;;;;3.70;3.38;;;;;;;36.46;25.80;100533.75;5035551;28;20025;-85
2023/05/04 06:56:57;;;;;;;5.47;3.28;;;;;;;37.78;25.72;100528.91;5035337;28;20029;-85
2023/05/04 06:59:23;;;;;;;5.05;3.33;;;;;;;38.77;24.09;100532.13;5035094;28;20033;-85
2023/05/04 07:01:48;;;;;;;3.53;3.22;;;;;;;39.77;24.51;100535.69;5035135;28;20032;-86
2023/05/04 07:04:21;;;;;;;3.58;3.28;;;;;;;40.14;23.70;100537.00;5034957;28;20028;-86
2023/05/04 07:06:47;;;;;;;4.47;3.20;;;;;;;40.13;23.01;100548.16;5033719;28;20025;-86
2023/05/04 07:09:13;;;;;;;3.72;3.33;;;;;;;38.90;23.65;100553.69;5035325;28;20033;-86
2023/05/04 07:11:38;;;;;;;3.85;3.45;;;;;;;39.84;22.92;100530.94;5033865;28;20033;-86
2023/05/04 07:14:03;;;;;;;4.60;3.17;;;;;;;40.15;22.36;100535.09;5035159;28;20025;-87
2023/05/04 07:16:29;;;;;;;3.10;2.90;;;;;;;39.75;23.02;100516.88;5034735;28;20108;-84
2023/05/04 07:18:55;;;;;;;3.90;3.50;;;;;;;40.39;22.88;100514.78;5044902;28;20029;-84
2023/05/04 07:21:20;;;;;;;3.70;3.40;;;;;;;40.67;22.34;100525.88;5054352;28;20037;-83
2023/05/04 07:23:45;;;;;;;3.70;3.40;;;;;;;41.51;22.41;100514.81;5054811;28;20028;-83
2023/05/04 07:26:11;;;;;;;3.60;3.30;;;;;;;42.31;22.24;100532.41;5054412;28;20586;-83
2023/05/04 07:28:37;;;;;;;5.15;3.88;;;;;;;41.41;22.22;100526.47;5054241;28;20524;-83
2023/05/04 07:31:03;;;;;;;6.28;4.10;;;;;;;42.01;22.20;100506.38;5054627;28;20029;-83
2023/05/04 07:33:28;;;;;;;4.93;3.70;;;;;;;42.60;21.70;100519.22;5054263;28;20064;-83
2023/05/04 07:35:57;;;;;;;3.55;3.25;;;;;;;42.79;21.37;100522.41;5053609;28;20029;-83
2023/05/04 07:38:26;;;;;;;6.97;3.90;;;;;;;40.53;22.15;100507.09;5053490;28;20400;-84
2023/05/04 07:40:53;;;;;;;5.55;4.00;;;;;;;40.98;22.42;100525.31;5053612;28;20025;-84
2023/05/04 07:43:18;;;;;;;4.03;3.17;;;;;;;41.65;20.70;100524.31;5051596;28;20032;-84
2023/05/04 07:45:44;;;;;;;3.60;2.50;;;;;;;41.34;20.91;100507.50;5053405;28;20431;-84
2023/05/04 07:48:09;;;;;;;4.15;3.42;;;;;;;41.07;20.69;100512.88;5053182;28;20436;-85
2023/05/04 07:50:35;;;;;;;4.88;3.17;;;;;;;40.45;20.99;100520.31;5053249;28;20029;-84
2023/05/04 07:53:01;;;;;;;3.30;3.00;;;;;;;38.86;21.16;100516.25;5053321;28;20192;-84
2023/05/04 07:55:27;;;;;;;4.47;3.10;;;;;;;38.47;21.64;100498.66;5052992;28;20021;-84
2023/05/04 07:57:53;;;;;;;4.88;3.40;;;;;;;38.72;21.95;100509.34;5053301;28;20025;-83
2023/05/04 08:00:19;;;;;;;4.60;2.83;;;;;;;38.74;21.98;100497.16;5053149;28;20499;-84
2023/05/04 08:02:44;;;;;;;8.93;3.25;;;;;;;38.16;21.97;100512.28;5053092;28;20473;-83
2023/05/04 08:05:10;;;;;;;3.35;2.92;;;;;;;38.80;22.04;100490.78;5052755;28;20054;-83
2023/05/04 08:07:36;;;;;;;3.08;2.70;;;;;;;39.23;21.62;100496.94;5053217;28;20032;-84
2023/05/04 08:10:01;;;;;;;3.22;2.92;;;;;;;38.14;21.83;100489.94;5053040;28;20029;-84
2023/05/04 08:12:27;;;;;;;2.90;2.60;;;;;;;37.99;21.78;100499.59;5052837;28;20066;-84
2023/05/04 08:14:52;;;;;;;3.65;2.83;;;;;;;37.64;22.14;100505.69;5052866;28;20040;-84
2023/05/04 08:17:17;;;;;;;4.03;3.42;;;;;;;36.12;22.37;100503.28;5052631;28;20025;-84
2023/05/04 08:19:43;;;;;;;4.25;3.38;;;;;;;36.65;22.64;100493.91;5052937;28;20195;-84
2023/05/04 08:22:09;;;;;;;4.05;3.17;;;;;;;36.56;22.41;100498.78;5052821;28;20144;-84
2023/05/04 08:24:34;;;;;;;3.30;3.00;;;;;;;36.30;22.53;100485.41;5052698;28;20044;-84
2023/05/04 08:27:01;;;;;;;4.30;3.63;;;;;;;34.97;23.34;100496.72;5051291;28;20056;-84
2023/05/04 08:29:27;;;;;;;4.25;3.55;;;;;;;32.55;24.96;100496.19;5052623;28;20028;-83
2023/05/04 08:31:55;;;;;;;4.15;3.47;;;;;;;29.71;27.44;100498.91;5052558;28;20029;-83
2023/05/04 08:34:20;;;;;;;4.03;3.63;;;;;;;27.80;29.00;100494.75;5063526;28;20033;-83
2023/05/04 08:36:45;;;;;;;5.57;3.42;;;;;;;25.99;31.01;100504.22;5064770;28;20043;-83
2023/05/04 08:39:11;;;;;;;5.72;3.70;;;;;;;23.58;32.45;100492.81;5069963;28;20036;-83
2023/05/04 08:41:40;;;;;;;6.93;4.07;;;;;;;22.35;34.08;100499.72;5067513;28;20036;-83
2023/05/04 08:44:08;;;;;;;5.70;4.15;;;;;;;21.36;34.93;100448.41;5070637;28;20029;-83
2023/05/04 08:46:33;;;;;;;6.03;3.70;;;;;;;21.12;36.01;100490.03;5070455;28;20047;-83
2023/05/04 08:48:59;;;;;;;3.47;3.17;;;;;;;20.78;36.63;100491.78;5070560;28;20032;-83
2023/05/04 08:51:26;;;;;;;5.85;3.55;;;;;;;20.64;36.47;100483.06;5070378;28;20536;-83
2023/05/04 08:53:52;;;;;;;5.78;3.92;;;;;;;20.15;36.66;100460.22;5070585;28;20051;-83
2023/05/04 08:56:18;;;;;;;5.75;3.30;;;;;;;19.96;37.16;100483.69;5070237;28;20110;-83
2023/05/04 08:58:49;;;;;;;7.78;3.75;;;;;;;19.36;37.52;100490.53;5070440;28;20039;-83
2023/05/04 09:01:15;;;;;;;3.60;3.05;;;;;;;19.33;37.33;100484.63;5068615;28;20097;-83
2023/05/04 09:03:42;;;;;;;5.70;3.35;;;;;;;19.16;37.85;100472.59;5058859;28;20500;-82
2023/05/04 09:06:08;;;;;;;6.07;3.92;;;;;;;18.87;38.12;100479.88;5053307;28;20049;-83
2023/05/04 09:08:33;;;;;;;5.65;3.17;;;;;;;18.74;38.15;100487.78;5052403;28;20025;-83
2023/05/04 09:10:59;;;;;;;5.93;3.72;;;;;;;18.41;38.70;100483.78;5052908;28;20492;-83
2023/05/04 09:13:25;;;;;;;6.72;3.97;;;;;;;18.61;38.60;100492.16;5051084;28;20025;-83
2023/05/04 09:15:57;;;;;;;4.47;2.88;;;;;;;18.47;38.07;100461.41;5052375;28;20458;-82
2023/05/04 09:18:34;;;;;;;4.75;3.40;;;;;;;18.59;38.93;100476.44;5052478;28;20036;-83
2023/05/04 09:20:59;;;;;;;3.85;3.50;;;;;;;18.53;38.63;100445.16;5044830;28;20112;-83
2023/05/04 09:23:26;;;;;;;4.95;3.25;;;;;;;18.91;39.30;100476.91;5032378;28;20109;-82
2023/05/04 09:25:53;;;;;;;6.03;3.60;;;;;;;18.79;39.26;100493.56;5032541;28;20175;-82
2023/05/04 09:28:40;;;;;;;4.90;3.95;;;;;;;18.49;38.76;100467.44;5031942;28;20079;-82
2023/05/04 09:31:06;;;;;;;5.63;3.45;;;;;;;18.56;38.39;100502.16;5032085;28;20064;-82
2023/05/04 09:33:31;;;;;;;4.00;3.20;;;;;;;18.66;38.37;100477.69;5032291;28;20470;-82
2023/05/04 09:36:10;;;;;;;5.18;3.15;;;;;;;18.44;38.86;100440.50;5032367;28;20036;-83
2023/05/04 09:38:36;;;;;;;4.65;3.50;;;;;;;18.53;39.32;100475.97;5032077;28;20568;-82
2023/05/04 09:41:01;;;;;;;7.80;3.53;;;;;;;18.45;38.95;100471.22;5032310;28;20060;-82
2023/05/04 09:43:45;;;;;;;4.90;3.53;;;;;;;18.47;38.60;100476.41;5032222;28;20065;-82
2023/05/04 09:46:17;;;;;;;6.35;3.50;;;;;;;18.56;38.75;100481.06;5031042;28;20021;-82
2023/05/04 09:48:53;;;;;;;3.80;3.40;;;;;;;18.20;38.29;100478.13;5032239;28;20128;-83
2023/05/04 09:51:22;;;;;;;4.65;3.45;;;;;;;18.08;38.91;100439.38;5031749;28;20104;-82
2023/05/04 09:53:52;;;;;;;7.78;3.70;;;;;;;18.35;38.48;100473.63;5032046;28;20065;-83
2023/05/04 09:56:24;;;;;;;4.45;3.30;;;;;;;18.29;39.41;100478.47;5031855;28;20037;-83
2023/05/04 09:58:50;;;;;;;4.03;3.63;;;;;;;17.98;39.15;100466.41;5032134;28;20025;-83
2023/05/04 10:01:17;;;;;;;7.32;3.80;;;;;;;17.86;40.07;100476.78;5030430;28;20049;-83
2023/05/04 10:03:42;;;;;;;4.32;3.17;;;;;;;18.06;39.67;100472.88;5031882;28;20087;-83
2023/05/04 10:06:10;;;;;;;5.28;3.50;;;;;;;17.84;40.68;100440.94;5030846;28;20025;-82
2023/05/04 10:08:37;;;;;;;6.10;4.22;;;;;;;17.60;40.65;100438.06;5031815;28;20034;-82
2023/05/04 10:11:02;;;;;;;5.50;3.50;;;;;;;17.71;41.10;100449.59;5035025;28;20021;-83
2023/05/04 10:13:28;;;;;;;4.53;3.95;;;;;;;18.06;40.67;100450.94;5051318;28;20029;-83
2023/05/04 10:16:13;;;;;;;4.38;3.88;;;;;;;18.27;40.11;100464.53;5050325;28;20055;-82
2023/05/04 10:19:09;;;;;;;3.95;3.08;;;;;;;18.17;39.80;100464.28;5051490;28;20032;-83
2023/05/04 10:22:14;;;;;;;3.80;2.92;;;;;;;17.81;38.11;100470.97;5051402;28;20037;-83
2023/05/04 10:25:19;;;;;;;5.38;3.40;;;;;;;17.81;39.35;100468.34;5048888;28;20041;-83
2023/05/04 10:27:53;;;;;;;5.50;3.17;;;;;;;18.06;39.96;100450.94;5048926;28;20436;-83
2023/05/04 10:30:20;;;;;;;4.43;2.78;;;;;;;18.35;40.38;100444.59;5049002;28;20029;-83
2023/05/04 10:34:33;;;;;;;6.72;4.25;;;;;;;18.55;39.09;100442.44;5089211;28;20175;-92
2023/05/04 10:37:00;;;;;;;5.22;3.92;;;;;;;17.99;39.04;100413.59;5089294;28;20496;-92
2023/05/04 10:39:31;;;;;;;4.35;3.38;;;;;;;17.42;39.38;100356.63;5089147;28;20511;-91
2023/05/04 10:42:03;;;;;;;6.80;4.93;;;;;;;17.44;40.35;100377.59;5088288;28;20025;-91
2023/05/04 10:44:31;;;;;;;4.95;3.75;;;;;;;17.95;40.44;100417.41;5089139;28;20020;-91
2023/05/04 10:47:05;;;;;;;6.40;3.50;;;;;;;17.86;40.33;100399.53;5087954;28;20111;-91
2023/05/04 10:49:32;;;;;;;7.13;4.85;;;;;;;17.91;40.38;100414.13;5088934;28;20099;-92
2023/05/04 10:52:23;;;;;;;6.88;4.22;;;;;;;18.01;39.96;100416.97;5089051;28;20425;-91
2023/05/04 10:55:00;;;;;;;4.85;4.25;;;;;;;17.99;40.20;100386.38;5069714;28;20510;-90
2023/05/04 10:57:27;;;;;;;4.95;3.70;;;;;;;17.86;40.64;100403.00;5069672;28;20079;-91
2023/05/04 10:59:57;;;;;;;3.83;3.30;;;;;;;18.04;40.93;100398.34;5069665;28;20098;-92
2023/05/04 11:02:26;;;;;;;6.22;3.55;;;;;;;18.03;40.33;100370.25;5069350;28;20089;-92
2023/05/04 11:05:05;;;;;;;5.30;3.22;;;;;;;18.03;40.32;100358.88;5086568;28;20032;-90
2023/05/04 11:07:38;;;;;;;5.63;3.55;;;;;;;18.16;40.29;100394.03;5069071;28;20438;-90
2023/05/04 11:10:05;;;;;;;5.30;3.67;;;;;;;18.21;40.09;100397.22;5069271;28;20090;-91
2023/05/04 11:12:31;;;;;;;5.88;3.72;;;;;;;18.14;40.11;100388.03;5068782;28;20028;-91
2023/05/04 11:15:09;;;;;;;5.28;3.50;;;;;;;18.01;40.69;100372.19;5086256;28;20095;-89
2023/05/04 11:17:47;;;;;;;5.75;3.65;;;;;;;18.02;40.12;100376.50;5068889;28;20036;-89
2023/05/04 11:20:23;;;;;;;6.68;3.78;;;;;;;18.22;40.04;100374.34;5086071;28;20039;-89
2023/05/04 11:22:49;;;;;;;4.93;3.50;;;;;;;18.04;41.08;100369.34;5068875;28;20525;-90
2023/05/04 11:25:15;;;;;;;4.53;4.07;;;;;;;18.21;40.66;100378.78;5069058;28;20040;-90
2023/05/04 11:27:42;;;;;;;6.22;3.95;;;;;;;18.14;40.16;100349.31;5068693;28;20024;-90